sensor_id;sensor_type;location;lat;lon;timestamp;temperature;humidity
8780;DHT22;62328;51.19929245;4.42130175;2023-05-09T00:00:54;16.10;99.90
8780;DHT22;62328;51.19929245;4.42130175;2023-05-09T00:03:21;16.00;99.90
8780;DHT22;62328;51.19929245;4.42130175;2023-05-09T00:05:48;16.00;99.90
8780;DHT22;62328;51.19929245;4.42130175;2023-05-09T00:08:15;16.00;99.90
8780;DHT22;62328;51.19929245;4.42130175;2023-05-09T00:10:42;16.00;99.90
8780;DHT22;62328;51.19929245;4.42130175;2023-05-09T00:13:10;16.00;99.90
8780;DHT22;62328;51.19929245;4.42130175;2023-05-09T00:15:38;15.90;99.90
8780;DHT22;62328;51.19929245;4.42130175;2023-05-09T00:18:05;16.00;99.90
8780;DHT22;62328;51.19929245;4.42130175;2023-05-09T00:20:32;15.90;99.90
8780;DHT22;62328;51.19929245;4.42130175;2023-05-09T00:22:59;15.90;99.90
8780;DHT22;62328;51.19929245;4.42130175;2023-05-09T00:25:26;15.90;99.90
8780;DHT22;62328;51.19929245;4.42130175;2023-05-09T00:27:53;15.90;99.90
8780;DHT22;62328;51.19929245;4.42130175;2023-05-09T00:30:22;15.90;99.90
8780;DHT22;62328;51.19929245;4.42130175;2023-05-09T00:32:48;16.00;99.90
8780;DHT22;62328;51.19929245;4.42130175;2023-05-09T00:35:15;16.00;99.90
8780;DHT22;62328;51.19929245;4.42130175;2023-05-09T00:37:43;16.00;99.90
8780;DHT22;62328;51.19929245;4.42130175;2023-05-09T00:40:10;16.00;99.90
8780;DHT22;62328;51.19929245;4.42130175;2023-05-09T00:42:37;16.00;99.90
8780;DHT22;62328;51.19929245;4.42130175;2023-05-09T00:45:06;15.90;99.90
8780;DHT22;62328;51.19929245;4.42130175;2023-05-09T00:47:35;15.90;99.90
8780;DHT22;62328;51.19929245;4.42130175;2023-05-09T00:50:02;15.90;99.90
8780;DHT22;62328;51.19929245;4.42130175;2023-05-09T00:52:29;15.90;99.90
8780;DHT22;62328;51.19929245;4.42130175;2023-05-09T00:54:59;15.90;99.90
8780;DHT22;62328;51.19929245;4.42130175;2023-05-09T00:57:26;15.90;99.90
8780;DHT22;62328;51.19929245;4.42130175;2023-05-09T00:59:53;15.90;99.90
8780;DHT22;62328;51.19929245;4.42130175;2023-05-09T01:02:20;15.80;99.90
8780;DHT22;62328;51.19929245;4.42130175;2023-05-09T01:04:49;15.80;99.90
8780;DHT22;62328;51.19929245;4.42130175;2023-05-09T01:07:21;15.80;99.90
8780;DHT22;62328;51.19929245;4.42130175;2023-05-09T01:09:59;15.80;99.90
8780;DHT22;62328;51.19929245;4.42130175;2023-05-09T01:12:33;15.80;99.90
8780;DHT22;62328;51.19929245;4.42130175;2023-05-09T01:15:06;15.80;99.90
8780;DHT22;62328;51.19929245;4.42130175;2023-05-09T01:17:41;15.80;99.90
8780;DHT22;62328;51.19929245;4.42130175;2023-05-09T01:20:21;15.80;99.90
8780;DHT22;62328;51.19929245;4.42130175;2023-05-09T01:22:55;15.80;99.90
8780;DHT22;62328;51.19929245;4.42130175;2023-05-09T01:25:37;15.80;99.90
8780;DHT22;62328;51.19929245;4.42130175;2023-05-09T01:28:13;15.80;99.90
8780;DHT22;62328;51.19929245;4.42130175;2023-05-09T01:30:45;15.80;99.90
8780;DHT22;62328;51.19929245;4.42130175;2023-05-09T01:33:17;15.80;99.90
8780;DHT22;62328;51.19929245;4.42130175;2023-05-09T01:35:49;15.80;99.90
8780;DHT22;62328;51.19929245;4.42130175;2023-05-09T01:38:19;15.80;99.90
8780;DHT22;62328;51.19929245;4.42130175;2023-05-09T01:40:50;15.80;99.90
8780;DHT22;62328;51.19929245;4.42130175;2023-05-09T01:43:19;15.80;99.90
8780;DHT22;62328;51.19929245;4.42130175;2023-05-09T01:45:49;15.80;99.90
8780;DHT22;62328;51.19929245;4.42130175;2023-05-09T01:48:17;15.80;99.90
8780;DHT22;62328;51.19929245;4.42130175;2023-05-09T01:50:46;15.70;99.90
8780;DHT22;62328;51.19929245;4.42130175;2023-05-09T01:53:14;15.70;99.90
8780;DHT22;62328;51.19929245;4.42130175;2023-05-09T01:55:43;15.70;99.90
8780;DHT22;62328;51.19929245;4.42130175;2023-05-09T01:58:10;15.70;99.90
8780;DHT22;62328;51.19929245;4.42130175;2023-05-09T02:00:38;15.70;99.90
8780;DHT22;62328;51.19929245;4.42130175;2023-05-09T02:03:06;15.70;99.90
8780;DHT22;62328;51.19929245;4.42130175;2023-05-09T02:05:35;15.70;99.90
8780;DHT22;62328;51.19929245;4.42130175;2023-05-09T02:08:03;15.70;99.90
8780;DHT22;62328;51.19929245;4.42130175;2023-05-09T02:10:31;15.70;99.90
8780;DHT22;62328;51.19929245;4.42130175;2023-05-09T02:12:58;15.70;99.90
8780;DHT22;62328;51.19929245;4.42130175;2023-05-09T02:15:26;15.70;99.90
8780;DHT22;62328;51.19929245;4.42130175;2023-05-09T02:17:53;15.70;99.90
8780;DHT22;62328;51.19929245;4.42130175;2023-05-09T02:20:21;15.70;99.90
8780;DHT22;62328;51.19929245;4.42130175;2023-05-09T02:22:48;15.60;99.90
8780;DHT22;62328;51.19929245;4.42130175;2023-05-09T02:25:16;15.70;99.90
8780;DHT22;62328;51.19929245;4.42130175;2023-05-09T02:27:45;15.70;99.90
8780;DHT22;62328;51.19929245;4.42130175;2023-05-09T02:30:20;15.70;99.90
8780;DHT22;62328;51.19929245;4.42130175;2023-05-09T02:32:52;15.70;99.90
8780;DHT22;62328;51.19929245;4.42130175;2023-05-09T02:35:23;15.70;99.90
8780;DHT22;62328;51.19929245;4.42130175;2023-05-09T02:37:50;15.70;99.90
8780;DHT22;62328;51.19929245;4.42130175;2023-05-09T02:40:18;15.60;99.90
8780;DHT22;62328;51.19929245;4.42130175;2023-05-09T02:42:46;15.60;99.90
8780;DHT22;62328;51.19929245;4.42130175;2023-05-09T02:45:13;15.60;99.90
8780;DHT22;62328;51.19929245;4.42130175;2023-05-09T02:47:40;15.60;99.90
8780;DHT22;62328;51.19929245;4.42130175;2023-05-09T02:50:08;15.70;99.90
8780;DHT22;62328;51.19929245;4.42130175;2023-05-09T02:52:37;15.70;99.90
8780;DHT22;62328;51.19929245;4.42130175;2023-05-09T02:55:04;15.70;99.90
8780;DHT22;62328;51.19929245;4.42130175;2023-05-09T02:57:32;15.70;99.90
8780;DHT22;62328;51.19929245;4.42130175;2023-05-09T02:59:59;15.70;99.90
8780;DHT22;62328;51.19929245;4.42130175;2023-05-09T03:02:26;15.70;99.90
8780;DHT22;62328;51.19929245;4.42130175;2023-05-09T03:04:54;15.70;99.90
8780;DHT22;62328;51.19929245;4.42130175;2023-05-09T03:07:21;15.70;99.90
8780;DHT22;62328;51.19929245;4.42130175;2023-05-09T03:09:49;15.60;99.90
8780;DHT22;62328;51.19929245;4.42130175;2023-05-09T03:12:16;15.70;99.90
8780;DHT22;62328;51.19929245;4.42130175;2023-05-09T03:14:43;15.70;99.90
8780;DHT22;62328;51.19929245;4.42130175;2023-05-09T03:17:10;15.70;99.90
8780;DHT22;62328;51.19929245;4.42130175;2023-05-09T03:19:37;15.70;99.90
8780;DHT22;62328;51.19929245;4.42130175;2023-05-09T03:22:04;15.70;99.90
8780;DHT22;62328;51.19929245;4.42130175;2023-05-09T03:24:31;15.70;99.90
8780;DHT22;62328;51.19929245;4.42130175;2023-05-09T03:26:59;15.60;99.90
8780;DHT22;62328;51.19929245;4.42130175;2023-05-09T03:29:26;15.60;99.90
8780;DHT22;62328;51.19929245;4.42130175;2023-05-09T03:31:53;15.70;99.90
8780;DHT22;62328;51.19929245;4.42130175;2023-05-09T03:34:20;15.60;99.90
8780;DHT22;62328;51.19929245;4.42130175;2023-05-09T03:36:47;15.60;99.90
8780;DHT22;62328;51.19929245;4.42130175;2023-05-09T03:39:14;15.70;99.90
8780;DHT22;62328;51.19929245;4.42130175;2023-05-09T03:41:41;15.70;99.90
8780;DHT22;62328;51.19929245;4.42130175;2023-05-09T03:44:11;15.70;99.90
8780;DHT22;62328;51.19929245;4.42130175;2023-05-09T03:46:38;15.70;99.90
8780;DHT22;62328;51.19929245;4.42130175;2023-05-09T03:49:05;15.70;99.90
8780;DHT22;62328;51.19929245;4.42130175;2023-05-09T03:51:32;15.70;99.90
8780;DHT22;62328;51.19929245;4.42130175;2023-05-09T03:53:59;15.70;99.90
8780;DHT22;62328;51.19929245;4.42130175;2023-05-09T03:56:26;15.70;99.90
8780;DHT22;62328;51.19929245;4.42130175;2023-05-09T03:58:53;15.70;99.90
8780;DHT22;62328;51.19929245;4.42130175;2023-05-09T04:01:21;15.70;99.90
8780;DHT22;62328;51.19929245;4.42130175;2023-05-09T04:03:48;15.70;99.90
8780;DHT22;62328;51.19929245;4.42130175;2023-05-09T04:06:18;15.70;99.90
8780;DHT22;62328;51.19929245;4.42130175;2023-05-09T04:08:45;15.70;99.90
8780;DHT22;62328;51.19929245;4.42130175;2023-05-09T04:11:12;15.60;99.90
8780;DHT22;62328;51.19929245;4.42130175;2023-05-09T04:13:39;15.60;99.90
8780;DHT22;62328;51.19929245;4.42130175;2023-05-09T04:16:06;15.60;99.90
8780;DHT22;62328;51.19929245;4.42130175;2023-05-09T04:18:34;15.60;99.90
8780;DHT22;62328;51.19929245;4.42130175;2023-05-09T04:21:04;15.60;99.90
8780;DHT22;62328;51.19929245;4.42130175;2023-05-09T04:23:31;15.70;99.90
8780;DHT22;62328;51.19929245;4.42130175;2023-05-09T04:25:58;15.70;99.90
8780;DHT22;62328;51.19929245;4.42130175;2023-05-09T04:28:25;15.60;99.90
8780;DHT22;62328;51.19929245;4.42130175;2023-05-09T04:30:52;15.60;99.90
8780;DHT22;62328;51.19929245;4.42130175;2023-05-09T04:33:19;15.60;99.90
8780;DHT22;62328;51.19929245;4.42130175;2023-05-09T04:35:48;15.60;99.90
8780;DHT22;62328;51.19929245;4.42130175;2023-05-09T04:38:15;15.60;99.90
8780;DHT22;62328;51.19929245;4.42130175;2023-05-09T04:40:42;15.50;99.90
8780;DHT22;62328;51.19929245;4.42130175;2023-05-09T04:43:09;15.50;99.90
8780;DHT22;62328;51.19929245;4.42130175;2023-05-09T04:45:36;15.50;99.90
8780;DHT22;62328;51.19929245;4.42130175;2023-05-09T04:48:04;15.50;99.90
8780;DHT22;62328;51.19929245;4.42130175;2023-05-09T04:50:31;15.50;99.90
8780;DHT22;62328;51.19929245;4.42130175;2023-05-09T04:52:59;15.50;99.90
8780;DHT22;62328;51.19929245;4.42130175;2023-05-09T04:55:27;15.50;99.90
8780;DHT22;62328;51.19929245;4.42130175;2023-05-09T04:57:54;15.50;99.90
8780;DHT22;62328;51.19929245;4.42130175;2023-05-09T05:00:21;15.40;99.90
8780;DHT22;62328;51.19929245;4.42130175;2023-05-09T05:02:48;15.50;99.90
8780;DHT22;62328;51.19929245;4.42130175;2023-05-09T05:05:15;15.50;99.90
8780;DHT22;62328;51.19929245;4.42130175;2023-05-09T05:07:42;15.60;99.90
8780;DHT22;62328;51.19929245;4.42130175;2023-05-09T05:10:11;15.50;99.90
8780;DHT22;62328;51.19929245;4.42130175;2023-05-09T05:12:38;15.50;99.90
8780;DHT22;62328;51.19929245;4.42130175;2023-05-09T05:15:05;15.60;99.90
8780;DHT22;62328;51.19929245;4.42130175;2023-05-09T05:17:37;15.60;99.90
8780;DHT22;62328;51.19929245;4.42130175;2023-05-09T05:20:05;15.70;99.90
8780;DHT22;62328;51.19929245;4.42130175;2023-05-09T05:22:36;15.70;99.90
8780;DHT22;62328;51.19929245;4.42130175;2023-05-09T05:25:03;15.70;99.90
8780;DHT22;62328;51.19929245;4.42130175;2023-05-09T05:27:32;15.80;99.90
8780;DHT22;62328;51.19929245;4.42130175;2023-05-09T05:29:59;15.70;99.90
8780;DHT22;62328;51.19929245;4.42130175;2023-05-09T05:32:26;15.70;99.90
8780;DHT22;62328;51.19929245;4.42130175;2023-05-09T05:34:53;15.70;99.90
8780;DHT22;62328;51.19929245;4.42130175;2023-05-09T05:37:20;15.70;99.90
8780;DHT22;62328;51.19929245;4.42130175;2023-05-09T05:39:47;15.70;99.90
8780;DHT22;62328;51.19929245;4.42130175;2023-05-09T05:42:16;15.70;99.90
8780;DHT22;62328;51.19929245;4.42130175;2023-05-09T05:44:44;15.70;99.90
8780;DHT22;62328;51.19929245;4.42130175;2023-05-09T05:47:11;15.70;99.90
8780;DHT22;62328;51.19929245;4.42130175;2023-05-09T05:49:38;15.70;99.90
8780;DHT22;62328;51.19929245;4.42130175;2023-05-09T05:52:05;15.70;99.90
8780;DHT22;62328;51.19929245;4.42130175;2023-05-09T05:54:32;15.70;99.90
8780;DHT22;62328;51.19929245;4.42130175;2023-05-09T05:56:59;15.70;99.90
8780;DHT22;62328;51.19929245;4.42130175;2023-05-09T05:59:26;15.60;99.90
8780;DHT22;62328;51.19929245;4.42130175;2023-05-09T06:01:54;15.70;99.90
8780;DHT22;62328;51.19929245;4.42130175;2023-05-09T06:04:21;15.50;99.90
8780;DHT22;62328;51.19929245;4.42130175;2023-05-09T06:06:48;15.60;99.90
8780;DHT22;62328;51.19929245;4.42130175;2023-05-09T06:09:15;15.70;99.90
8780;DHT22;62328;51.19929245;4.42130175;2023-05-09T06:11:42;15.60;99.90
8780;DHT22;62328;51.19929245;4.42130175;2023-05-09T06:14:09;15.60;99.90
8780;DHT22;62328;51.19929245;4.42130175;2023-05-09T06:16:35;15.50;99.90
8780;DHT22;62328;51.19929245;4.42130175;2023-05-09T06:19:04;15.50;99.90
8780;DHT22;62328;51.19929245;4.42130175;2023-05-09T06:21:31;15.50;99.90
8780;DHT22;62328;51.19929245;4.42130175;2023-05-09T06:23:58;15.60;99.90
8780;DHT22;62328;51.19929245;4.42130175;2023-05-09T06:26:27;15.60;99.90
8780;DHT22;62328;51.19929245;4.42130175;2023-05-09T06:28:54;15.70;99.90
8780;DHT22;62328;51.19929245;4.42130175;2023-05-09T06:31:21;15.70;99.90
8780;DHT22;62328;51.19929245;4.42130175;2023-05-09T06:33:48;15.70;99.90
8780;DHT22;62328;51.19929245;4.42130175;2023-05-09T06:36:17;15.70;99.90
8780;DHT22;62328;51.19929245;4.42130175;2023-05-09T06:38:43;15.70;99.90
8780;DHT22;62328;51.19929245;4.42130175;2023-05-09T06:41:10;15.70;99.90
8780;DHT22;62328;51.19929245;4.42130175;2023-05-09T06:43:37;15.80;99.90
8780;DHT22;62328;51.19929245;4.42130175;2023-05-09T06:46:04;15.80;99.90
8780;DHT22;62328;51.19929245;4.42130175;2023-05-09T06:48:33;15.70;99.90
8780;DHT22;62328;51.19929245;4.42130175;2023-05-09T06:51:00;15.70;99.90
8780;DHT22;62328;51.19929245;4.42130175;2023-05-09T06:53:29;15.80;99.90
8780;DHT22;62328;51.19929245;4.42130175;2023-05-09T06:55:56;15.80;99.90
8780;DHT22;62328;51.19929245;4.42130175;2023-05-09T06:58:23;15.70;99.90
8780;DHT22;62328;51.19929245;4.42130175;2023-05-09T07:00:51;15.90;99.90
8780;DHT22;62328;51.19929245;4.42130175;2023-05-09T07:03:18;15.90;99.90
8780;DHT22;62328;51.19929245;4.42130175;2023-05-09T07:05:45;15.90;99.90
8780;DHT22;62328;51.19929245;4.42130175;2023-05-09T07:08:12;15.90;99.90
8780;DHT22;62328;51.19929245;4.42130175;2023-05-09T07:10:41;15.90;99.90
8780;DHT22;62328;51.19929245;4.42130175;2023-05-09T07:13:08;15.80;99.90
8780;DHT22;62328;51.19929245;4.42130175;2023-05-09T07:15:35;15.90;99.90
8780;DHT22;62328;51.19929245;4.42130175;2023-05-09T07:18:02;15.90;99.90
8780;DHT22;62328;51.19929245;4.42130175;2023-05-09T07:20:29;15.90;99.90
8780;DHT22;62328;51.19929245;4.42130175;2023-05-09T07:22:56;15.90;99.90
8780;DHT22;62328;51.19929245;4.42130175;2023-05-09T07:25:23;15.90;99.90
8780;DHT22;62328;51.19929245;4.42130175;2023-05-09T07:27:51;16.00;99.90
8780;DHT22;62328;51.19929245;4.42130175;2023-05-09T07:30:18;15.90;99.90
8780;DHT22;62328;51.19929245;4.42130175;2023-05-09T07:32:45;15.90;99.90
8780;DHT22;62328;51.19929245;4.42130175;2023-05-09T07:35:12;16.00;99.90
8780;DHT22;62328;51.19929245;4.42130175;2023-05-09T07:37:39;16.00;99.90
8780;DHT22;62328;51.19929245;4.42130175;2023-05-09T07:40:07;16.00;99.90
8780;DHT22;62328;51.19929245;4.42130175;2023-05-09T07:42:35;16.00;99.90
8780;DHT22;62328;51.19929245;4.42130175;2023-05-09T07:45:05;16.10;99.90
8780;DHT22;62328;51.19929245;4.42130175;2023-05-09T07:47:32;16.10;99.90
8780;DHT22;62328;51.19929245;4.42130175;2023-05-09T07:49:59;16.10;99.90
8780;DHT22;62328;51.19929245;4.42130175;2023-05-09T07:52:26;16.10;99.90
8780;DHT22;62328;51.19929245;4.42130175;2023-05-09T07:54:53;16.10;99.90
8780;DHT22;62328;51.19929245;4.42130175;2023-05-09T07:57:20;16.20;99.90
8780;DHT22;62328;51.19929245;4.42130175;2023-05-09T07:59:48;16.20;99.90
8780;DHT22;62328;51.19929245;4.42130175;2023-05-09T08:02:16;16.10;99.90
8780;DHT22;62328;51.19929245;4.42130175;2023-05-09T08:04:43;16.10;99.90
8780;DHT22;62328;51.19929245;4.42130175;2023-05-09T08:07:13;16.10;99.90
8780;DHT22;62328;51.19929245;4.42130175;2023-05-09T08:09:40;16.20;99.90
8780;DHT22;62328;51.19929245;4.42130175;2023-05-09T08:12:07;16.20;99.90
8780;DHT22;62328;51.19929245;4.42130175;2023-05-09T08:14:34;16.30;99.90
8780;DHT22;62328;51.19929245;4.42130175;2023-05-09T08:17:01;16.30;99.90
8780;DHT22;62328;51.19929245;4.42130175;2023-05-09T08:19:29;16.20;99.90
8780;DHT22;62328;51.19929245;4.42130175;2023-05-09T08:21:56;16.20;99.90
8780;DHT22;62328;51.19929245;4.42130175;2023-05-09T08:24:23;16.20;99.90
8780;DHT22;62328;51.19929245;4.42130175;2023-05-09T08:26:50;16.20;99.90
8780;DHT22;62328;51.19929245;4.42130175;2023-05-09T08:29:17;16.30;99.90
8780;DHT22;62328;51.19929245;4.42130175;2023-05-09T08:31:45;16.30;99.90
8780;DHT22;62328;51.19929245;4.42130175;2023-05-09T08:34:13;16.30;99.90
8780;DHT22;62328;51.19929245;4.42130175;2023-05-09T08:36:41;16.20;99.90
8780;DHT22;62328;51.19929245;4.42130175;2023-05-09T08:39:11;16.20;99.90
8780;DHT22;62328;51.19929245;4.42130175;2023-05-09T08:41:38;16.20;99.90
8780;DHT22;62328;51.19929245;4.42130175;2023-05-09T08:44:05;16.20;99.90
8780;DHT22;62328;51.19929245;4.42130175;2023-05-09T08:46:36;16.20;99.90
8780;DHT22;62328;51.19929245;4.42130175;2023-05-09T08:49:04;16.30;99.90
8780;DHT22;62328;51.19929245;4.42130175;2023-05-09T08:51:31;16.20;99.90
8780;DHT22;62328;51.19929245;4.42130175;2023-05-09T08:54:00;16.20;99.90
8780;DHT22;62328;51.19929245;4.42130175;2023-05-09T08:56:28;16.30;99.90
8780;DHT22;62328;51.19929245;4.42130175;2023-05-09T08:58:55;16.30;99.90
8780;DHT22;62328;51.19929245;4.42130175;2023-05-09T09:01:23;16.30;99.90
8780;DHT22;62328;51.19929245;4.42130175;2023-05-09T09:03:51;16.30;99.90
8780;DHT22;62328;51.19929245;4.42130175;2023-05-09T09:06:20;16.20;99.90
8780;DHT22;62328;51.19929245;4.42130175;2023-05-09T09:08:49;16.20;99.90
8780;DHT22;62328;51.19929245;4.42130175;2023-05-09T09:11:18;16.10;99.90
8780;DHT22;62328;51.19929245;4.42130175;2023-05-09T09:13:50;16.10;99.90
8780;DHT22;62328;51.19929245;4.42130175;2023-05-09T09:16:19;16.10;99.90
8780;DHT22;62328;51.19929245;4.42130175;2023-05-09T09:18:47;16.20;99.90
8780;DHT22;62328;51.19929245;4.42130175;2023-05-09T09:21:16;16.20;99.90
8780;DHT22;62328;51.19929245;4.42130175;2023-05-09T09:23:45;16.00;99.90
8780;DHT22;62328;51.19929245;4.42130175;2023-05-09T09:26:13;16.10;99.90
8780;DHT22;62328;51.19929245;4.42130175;2023-05-09T09:28:42;16.10;99.90
8780;DHT22;62328;51.19929245;4.42130175;2023-05-09T09:31:19;16.20;99.90
8780;DHT22;62328;51.19929245;4.42130175;2023-05-09T09:33:47;16.10;99.90
8780;DHT22;62328;51.19929245;4.42130175;2023-05-09T09:36:25;16.00;99.90
8780;DHT22;62328;51.19929245;4.42130175;2023-05-09T09:38:55;16.00;99.90
8780;DHT22;62328;51.19929245;4.42130175;2023-05-09T09:41:29;16.00;99.90
8780;DHT22;62328;51.19929245;4.42130175;2023-05-09T09:43:58;16.10;99.90
8780;DHT22;62328;51.19929245;4.42130175;2023-05-09T09:46:40;16.20;99.90
8780;DHT22;62328;51.19929245;4.42130175;2023-05-09T09:49:08;16.20;99.90
8780;DHT22;62328;51.19929245;4.42130175;2023-05-09T09:51:35;16.20;99.90
8780;DHT22;62328;51.19929245;4.42130175;2023-05-09T09:54:02;16.20;99.90
8780;DHT22;62328;51.19929245;4.42130175;2023-05-09T09:56:39;16.10;99.90
8780;DHT22;62328;51.19929245;4.42130175;2023-05-09T09:59:09;16.10;99.90
8780;DHT22;62328;51.19929245;4.42130175;2023-05-09T10:01:53;16.10;99.90
8780;DHT22;62328;51.19929245;4.42130175;2023-05-09T10:04:20;16.20;99.90
8780;DHT22;62328;51.19929245;4.42130175;2023-05-09T10:06:54;16.20;99.90
8780;DHT22;62328;51.19929245;4.42130175;2023-05-09T10:09:22;16.10;99.90
8780;DHT22;62328;51.19929245;4.42130175;2023-05-09T10:11:50;16.00;99.90
8780;DHT22;62328;51.19929245;4.42130175;2023-05-09T10:14:20;16.00;99.90
8780;DHT22;62328;51.19929245;4.42130175;2023-05-09T10:16:49;16.10;99.90
8780;DHT22;62328;51.19929245;4.42130175;2023-05-09T10:19:17;16.20;99.90
8780;DHT22;62328;51.19929245;4.42130175;2023-05-09T10:21:50;16.20;99.90
8780;DHT22;62328;51.19929245;4.42130175;2023-05-09T10:24:21;16.20;99.90
8780;DHT22;62328;51.19929245;4.42130175;2023-05-09T10:26:52;16.20;99.90
8780;DHT22;62328;51.19929245;4.42130175;2023-05-09T10:29:23;16.10;99.90
8780;DHT22;62328;51.19929245;4.42130175;2023-05-09T10:31:53;16.10;99.90
8780;DHT22;62328;51.19929245;4.42130175;2023-05-09T10:34:24;16.20;99.90
8780;DHT22;62328;51.19929245;4.42130175;2023-05-09T10:36:52;16.10;99.90
8780;DHT22;62328;51.19929245;4.42130175;2023-05-09T10:39:21;16.10;99.90
8780;DHT22;62328;51.19929245;4.42130175;2023-05-09T10:41:49;16.10;99.90
8780;DHT22;62328;51.19929245;4.42130175;2023-05-09T10:44:16;16.10;99.90
8780;DHT22;62328;51.19929245;4.42130175;2023-05-09T10:46:45;16.10;99.90
8780;DHT22;62328;51.19929245;4.42130175;2023-05-09T10:49:13;16.10;99.90
8780;DHT22;62328;51.19929245;4.42130175;2023-05-09T10:51:40;16.20;99.90
8780;DHT22;62328;51.19929245;4.42130175;2023-05-09T10:54:25;16.10;99.90
8780;DHT22;62328;51.19929245;4.42130175;2023-05-09T10:56:53;16.00;99.90
8780;DHT22;62328;51.19929245;4.42130175;2023-05-09T10:59:34;15.80;99.90
8780;DHT22;62328;51.19929245;4.42130175;2023-05-09T11:02:09;15.80;99.90
8780;DHT22;62328;51.19929245;4.42130175;2023-05-09T11:04:38;15.80;99.90
8780;DHT22;62328;51.19929245;4.42130175;2023-05-09T11:07:21;15.80;99.90
8780;DHT22;62328;51.19929245;4.42130175;2023-05-09T11:09:50;15.70;99.90
8780;DHT22;62328;51.19929245;4.42130175;2023-05-09T11:12:19;15.80;99.90
8780;DHT22;62328;51.19929245;4.42130175;2023-05-09T11:14:48;15.80;99.90
8780;DHT22;62328;51.19929245;4.42130175;2023-05-09T11:17:28;15.90;99.90
8780;DHT22;62328;51.19929245;4.42130175;2023-05-09T11:19:58;15.80;99.90
8780;DHT22;62328;51.19929245;4.42130175;2023-05-09T11:22:27;15.70;99.90
8780;DHT22;62328;51.19929245;4.42130175;2023-05-09T11:25:07;15.60;99.90
8780;DHT22;62328;51.19929245;4.42130175;2023-05-09T11:27:38;15.60;99.90
8780;DHT22;62328;51.19929245;4.42130175;2023-05-09T11:30:07;15.70;99.90
8780;DHT22;62328;51.19929245;4.42130175;2023-05-09T11:32:43;15.70;99.90
8780;DHT22;62328;51.19929245;4.42130175;2023-05-09T11:35:12;15.80;99.90
8780;DHT22;62328;51.19929245;4.42130175;2023-05-09T11:37:47;15.80;99.90
8780;DHT22;62328;51.19929245;4.42130175;2023-05-09T11:40:16;15.90;99.90
8780;DHT22;62328;51.19929245;4.42130175;2023-05-09T11:42:44;15.90;99.90
8780;DHT22;62328;51.19929245;4.42130175;2023-05-09T11:45:13;16.00;99.90
8780;DHT22;62328;51.19929245;4.42130175;2023-05-09T11:47:41;15.80;99.90
8780;DHT22;62328;51.19929245;4.42130175;2023-05-09T11:50:10;15.70;99.90
8780;DHT22;62328;51.19929245;4.42130175;2023-05-09T11:52:37;15.60;99.90
8780;DHT22;62328;51.19929245;4.42130175;2023-05-09T11:55:06;15.50;99.90
8780;DHT22;62328;51.19929245;4.42130175;2023-05-09T11:57:34;15.40;99.90
8780;DHT22;62328;51.19929245;4.42130175;2023-05-09T12:00:01;15.50;99.90
8780;DHT22;62328;51.19929245;4.42130175;2023-05-09T12:02:29;15.60;99.90
8780;DHT22;62328;51.19929245;4.42130175;2023-05-09T12:05:05;15.50;99.90
8780;DHT22;62328;51.19929245;4.42130175;2023-05-09T12:07:33;15.40;99.90
8780;DHT22;62328;51.19929245;4.42130175;2023-05-09T12:10:01;15.30;99.90
8780;DHT22;62328;51.19929245;4.42130175;2023-05-09T12:12:33;15.40;99.90
8780;DHT22;62328;51.19929245;4.42130175;2023-05-09T12:15:02;15.30;99.90
8780;DHT22;62328;51.19929245;4.42130175;2023-05-09T12:17:30;15.30;99.90
8780;DHT22;62328;51.19929245;4.42130175;2023-05-09T12:19:59;15.50;99.90
8780;DHT22;62328;51.19929245;4.42130175;2023-05-09T12:22:28;15.50;99.90
8780;DHT22;62328;51.19929245;4.42130175;2023-05-09T12:24:56;15.60;99.90
8780;DHT22;62328;51.19929245;4.42130175;2023-05-09T12:27:24;15.40;99.90
8780;DHT22;62328;51.19929245;4.42130175;2023-05-09T12:29:53;15.40;99.90
8780;DHT22;62328;51.19929245;4.42130175;2023-05-09T12:32:20;15.40;99.90
8780;DHT22;62328;51.19929245;4.42130175;2023-05-09T12:34:47;15.40;99.90
8780;DHT22;62328;51.19929245;4.42130175;2023-05-09T12:37:18;15.30;99.90
8780;DHT22;62328;51.19929245;4.42130175;2023-05-09T12:39:59;15.30;99.90
8780;DHT22;62328;51.19929245;4.42130175;2023-05-09T12:42:26;15.20;99.90
8780;DHT22;62328;51.19929245;4.42130175;2023-05-09T12:44:55;15.20;99.90
8780;DHT22;62328;51.19929245;4.42130175;2023-05-09T12:47:25;15.20;99.90
8780;DHT22;62328;51.19929245;4.42130175;2023-05-09T12:49:56;15.20;99.90
8780;DHT22;62328;51.19929245;4.42130175;2023-05-09T12:52:31;15.30;99.90
8780;DHT22;62328;51.19929245;4.42130175;2023-05-09T12:55:04;15.30;99.90
8780;DHT22;62328;51.19929245;4.42130175;2023-05-09T12:57:32;15.30;99.90
8780;DHT22;62328;51.19929245;4.42130175;2023-05-09T13:00:01;15.30;99.90
8780;DHT22;62328;51.19929245;4.42130175;2023-05-09T13:02:33;15.20;99.90
8780;DHT22;62328;51.19929245;4.42130175;2023-05-09T13:05:07;15.20;99.90
8780;DHT22;62328;51.19929245;4.42130175;2023-05-09T13:07:42;15.30;99.90
8780;DHT22;62328;51.19929245;4.42130175;2023-05-09T13:10:10;15.40;99.90
8780;DHT22;62328;51.19929245;4.42130175;2023-05-09T13:12:38;15.30;99.90
8780;DHT22;62328;51.19929245;4.42130175;2023-05-09T13:15:09;15.40;99.90
8780;DHT22;62328;51.19929245;4.42130175;2023-05-09T13:17:37;15.40;99.90
8780;DHT22;62328;51.19929245;4.42130175;2023-05-09T13:20:05;15.40;99.90
8780;DHT22;62328;51.19929245;4.42130175;2023-05-09T13:22:33;15.30;99.90
8780;DHT22;62328;51.19929245;4.42130175;2023-05-09T13:25:02;15.30;99.90
8780;DHT22;62328;51.19929245;4.42130175;2023-05-09T13:27:31;15.40;99.90
8780;DHT22;62328;51.19929245;4.42130175;2023-05-09T13:29:59;15.40;99.90
8780;DHT22;62328;51.19929245;4.42130175;2023-05-09T13:32:26;15.50;99.90
8780;DHT22;62328;51.19929245;4.42130175;2023-05-09T13:34:53;15.60;99.90
8780;DHT22;62328;51.19929245;4.42130175;2023-05-09T13:37:20;15.60;99.90
8780;DHT22;62328;51.19929245;4.42130175;2023-05-09T13:39:48;15.50;99.90
8780;DHT22;62328;51.19929245;4.42130175;2023-05-09T13:42:16;15.50;99.90